Time;durP1;ratioP1;P1;durP2;ratioP2;P2;SDS_P1;SDS_P2;PMS_P1;PMS_P2;Temp;Humidity;BMP_temperature;BMP_pressure;BME280_temperature;BME280_humidity;BME280_pressure;Samples;Min_cycle;Max_cycle;Signal;HPM_P1;HPM_P2
2022/12/18 00:01:48;;;;;;;52.00;24.98;;;;;;;;;;5114004;28;20461;-61
2022/12/18 00:04:22;;;;;;;47.47;23.92;;;;;;;;;;5114874;28;20118;-61
2022/12/18 00:06:48;;;;;;;46.75;22.48;;;;;;;;;;5114557;28;20081;-61
2022/12/18 00:09:15;;;;;;;46.83;21.48;;;;;;;;;;5114855;28;20023;-68
2022/12/18 00:11:41;;;;;;;37.03;16.80;;;;;;;;;;5114615;28;20046;-67
2022/12/18 00:14:07;;;;;;;42.80;19.70;;;;;;;;;;5113729;28;20036;-61
2022/12/18 00:16:35;;;;;;;40.80;20.35;;;;;;;;;;5114187;28;20024;-71
2022/12/18 00:19:01;;;;;;;45.67;20.48;;;;;;;;;;5114333;28;20073;-61
2022/12/18 00:21:29;;;;;;;39.58;18.10;;;;;;;;;;5114187;28;20034;-67
2022/12/18 00:23:55;;;;;;;45.60;20.05;;;;;;;;;;5113385;28;20052;-71
2022/12/18 00:26:25;;;;;;;41.65;19.67;;;;;;;;;;5114253;28;20094;-66
2022/12/18 00:28:52;;;;;;;42.78;20.08;;;;;;;;;;5112679;28;20383;-61
2022/12/18 00:31:20;;;;;;;43.90;21.98;;;;;;;;;;5114376;28;20026;-62
2022/12/18 00:33:46;;;;;;;44.15;18.58;;;;;;;;;;5113992;28;20122;-63
2022/12/18 00:36:19;;;;;;;43.13;20.70;;;;;;;;;;5113802;28;20034;-62
2022/12/18 00:38:46;;;;;;;44.17;21.05;;;;;;;;;;5114176;28;20039;-72
2022/12/18 00:41:13;;;;;;;42.88;20.48;;;;;;;;;;5114341;27;20028;-61
2022/12/18 00:43:39;;;;;;;43.08;20.13;;;;;;;;;;5113690;27;20035;-62
2022/12/18 00:46:06;;;;;;;43.35;20.35;;;;;;;;;;5112956;28;20082;-70
2022/12/18 00:48:32;;;;;;;41.38;18.00;;;;;;;;;;5112560;28;20104;-63
2022/12/18 00:50:58;;;;;;;41.50;20.23;;;;;;;;;;5112661;28;20024;-63
2022/12/18 07:12:20;;;;;;;51.55;20.25;;;;;;;;;;5105491;23;20057;-60
2022/12/18 07:14:46;;;;;;;51.92;23.38;;;;;;;;;;5030892;28;20076;-59
2022/12/18 07:17:12;;;;;;;56.35;24.02;;;;;;;;;;5030658;28;20021;-59
2022/12/18 07:19:38;;;;;;;53.70;24.45;;;;;;;;;;5030510;28;20033;-59
2022/12/18 07:22:04;;;;;;;54.50;24.02;;;;;;;;;;5030284;28;20029;-65
2022/12/18 07:24:33;;;;;;;55.05;24.42;;;;;;;;;;5030458;28;20119;-63
2022/12/18 07:26:59;;;;;;;56.35;23.38;;;;;;;;;;5030535;28;20028;-61
2022/12/18 07:29:25;;;;;;;52.80;23.83;;;;;;;;;;5030426;28;20031;-60
2022/12/18 07:31:51;;;;;;;59.15;25.58;;;;;;;;;;5030492;28;20017;-60
2022/12/18 07:34:17;;;;;;;59.35;25.98;;;;;;;;;;5030131;28;20034;-61
2022/12/18 07:36:43;;;;;;;55.90;24.50;;;;;;;;;;5030236;28;20032;-60
2022/12/18 07:39:11;;;;;;;55.70;23.17;;;;;;;;;;5029611;28;20029;-61
2022/12/18 07:41:37;;;;;;;52.75;22.65;;;;;;;;;;5030322;28;20033;-59
2022/12/18 07:44:03;;;;;;;53.75;21.25;;;;;;;;;;5030359;28;20394;-60
2022/12/18 07:46:29;;;;;;;49.67;23.15;;;;;;;;;;5030383;28;20117;-60
2022/12/18 07:48:55;;;;;;;56.88;24.55;;;;;;;;;;5030390;28;20472;-61
2022/12/18 07:51:21;;;;;;;53.38;23.95;;;;;;;;;;5012336;28;20506;-63
2022/12/18 07:53:48;;;;;;;52.78;23.80;;;;;;;;;;5030202;28;20034;-69
2022/12/18 07:56:14;;;;;;;59.15;23.98;;;;;;;;;;5029909;28;20053;-65
2022/12/18 07:58:40;;;;;;;55.92;25.40;;;;;;;;;;5030356;28;20381;-60
2022/12/18 08:01:07;;;;;;;60.17;26.63;;;;;;;;;;5030369;28;20025;-62
2022/12/18 08:03:33;;;;;;;73.82;33.28;;;;;;;;;;5030388;28;20029;-67
2022/12/18 08:06:02;;;;;;;61.17;27.10;;;;;;;;;;5012298;28;20120;-60
2022/12/18 08:08:29;;;;;;;65.07;28.25;;;;;;;;;;5030315;28;20172;-61
2022/12/18 08:10:55;;;;;;;70.55;31.35;;;;;;;;;;5029746;28;20045;-60
2022/12/18 08:13:22;;;;;;;74.72;31.38;;;;;;;;;;5029894;28;20497;-61
2022/12/18 08:15:56;;;;;;;62.22;28.45;;;;;;;;;;5031271;28;20064;-60
2022/12/18 08:18:22;;;;;;;70.95;29.88;;;;;;;;;;5033794;28;20017;-60
2022/12/18 08:20:48;;;;;;;66.10;29.77;;;;;;;;;;5033395;28;20024;-61
2022/12/18 08:23:14;;;;;;;71.88;30.90;;;;;;;;;;5033441;28;20053;-64
2022/12/18 08:25:40;;;;;;;59.00;27.17;;;;;;;;;;5033869;28;20053;-60
2022/12/18 08:28:06;;;;;;;68.30;29.67;;;;;;;;;;5033671;28;20025;-70
2022/12/18 08:30:32;;;;;;;63.83;29.35;;;;;;;;;;5033548;28;20104;-62
2022/12/18 08:32:58;;;;;;;66.75;30.13;;;;;;;;;;5033391;28;20045;-70
2022/12/18 08:35:24;;;;;;;62.92;30.00;;;;;;;;;;5033586;28;20033;-69
2022/12/18 08:37:51;;;;;;;67.53;31.75;;;;;;;;;;5033112;28;20029;-70
2022/12/18 08:40:17;;;;;;;69.20;31.33;;;;;;;;;;5033535;28;20129;-59
2022/12/18 08:45:28;;;;;;;62.90;27.42;;;;;;;;;;5033594;28;20052;-71
2022/12/18 08:47:54;;;;;;;60.75;26.85;;;;;;;;;;5032673;28;20021;-60
2022/12/18 08:50:20;;;;;;;63.83;27.48;;;;;;;;;;5033057;28;20025;-59
2022/12/18 08:52:46;;;;;;;59.05;24.90;;;;;;;;;;5032846;28;20053;-69
2022/12/18 08:55:12;;;;;;;67.60;27.60;;;;;;;;;;5032941;28;20033;-61
2022/12/18 08:57:38;;;;;;;60.83;26.50;;;;;;;;;;5032930;28;20029;-61
2022/12/18 09:00:05;;;;;;;57.83;26.45;;;;;;;;;;5032730;28;20487;-62
2022/12/18 09:02:31;;;;;;;62.63;27.05;;;;;;;;;;5032826;28;20030;-63
2022/12/18 09:04:57;;;;;;;60.00;27.48;;;;;;;;;;5032896;28;20032;-63
2022/12/18 09:07:23;;;;;;;60.20;27.23;;;;;;;;;;5032768;28;20026;-64
2022/12/18 09:09:49;;;;;;;60.47;27.40;;;;;;;;;;5032536;28;20025;-61
2022/12/18 09:12:15;;;;;;;60.00;25.98;;;;;;;;;;5032243;28;20053;-68
2022/12/18 09:14:41;;;;;;;62.35;27.50;;;;;;;;;;5033025;28;20032;-77
2022/12/18 09:17:07;;;;;;;63.95;27.02;;;;;;;;;;5032296;28;20017;-63
2022/12/18 09:19:33;;;;;;;59.10;25.90;;;;;;;;;;5033258;28;20057;-62
2022/12/18 09:21:59;;;;;;;58.22;25.90;;;;;;;;;;5032588;28;20025;-61
2022/12/18 09:24:25;;;;;;;50.70;24.25;;;;;;;;;;5032561;28;20465;-60
2022/12/18 09:26:54;;;;;;;49.95;24.00;;;;;;;;;;5031991;28;20045;-71
2022/12/18 09:29:20;;;;;;;55.20;25.77;;;;;;;;;;5032014;28;20056;-68
2022/12/18 09:31:47;;;;;;;54.00;24.73;;;;;;;;;;5031861;28;20393;-60
2022/12/18 09:34:13;;;;;;;57.47;25.77;;;;;;;;;;5032424;28;20456;-72
2022/12/18 09:36:39;;;;;;;59.03;26.63;;;;;;;;;;5032239;28;20025;-59
2022/12/18 09:39:05;;;;;;;58.45;27.33;;;;;;;;;;5031186;28;20021;-70
2022/12/18 09:41:43;;;;;;;56.17;26.48;;;;;;;;;;5030958;28;20053;-59
2022/12/18 09:44:12;;;;;;;52.28;26.30;;;;;;;;;;5031748;28;20053;-60
2022/12/18 09:46:41;;;;;;;63.60;29.85;;;;;;;;;;5032191;28;20047;-65
2022/12/18 09:49:11;;;;;;;56.92;26.33;;;;;;;;;;5031968;28;20068;-60
2022/12/18 09:51:50;;;;;;;55.88;26.27;;;;;;;;;;5036106;28;20021;-60
2022/12/18 09:54:19;;;;;;;64.72;28.45;;;;;;;;;;5051452;28;20040;-63
2022/12/18 09:56:45;;;;;;;62.65;29.17;;;;;;;;;;5051925;28;20025;-62
2022/12/18 09:59:30;;;;;;;58.85;27.48;;;;;;;;;;5036334;28;20061;-61
2022/12/18 10:01:56;;;;;;;57.60;26.42;;;;;;;;;;5031104;28;20071;-70
2022/12/18 10:04:22;;;;;;;64.03;28.05;;;;;;;;;;5036357;28;20033;-60
2022/12/18 10:06:59;;;;;;;60.38;27.88;;;;;;;;;;5051309;28;20025;-60
2022/12/18 10:09:29;;;;;;;54.47;26.60;;;;;;;;;;5051148;28;20024;-63
2022/12/18 10:12:04;;;;;;;56.15;27.35;;;;;;;;;;5050970;28;20045;-61
2022/12/18 10:14:34;;;;;;;57.05;27.05;;;;;;;;;;5051136;28;20037;-68
2022/12/18 10:17:00;;;;;;;59.42;28.38;;;;;;;;;;5051183;28;20021;-74
2022/12/18 10:19:33;;;;;;;56.15;26.90;;;;;;;;;;5034942;28;20375;-63
2022/12/18 10:22:08;;;;;;;57.17;26.98;;;;;;;;;;5030881;28;20036;-68
2022/12/18 10:24:39;;;;;;;60.45;27.17;;;;;;;;;;5031029;28;20025;-64
2022/12/18 10:27:11;;;;;;;61.92;26.92;;;;;;;;;;5031915;28;20053;-71
2022/12/18 10:29:37;;;;;;;;;;;;;;;;;;5032299;28;20492;-72
2022/12/18 10:32:03;;;;;;;60.53;25.98;;;;;;;;;;5031649;28;19909;-71
2022/12/18 10:34:29;;;;;;;56.90;26.38;;;;;;;;;;5031324;28;20064;-62
2022/12/18 10:36:55;;;;;;;49.67;22.10;;;;;;;;;;5030985;28;20470;-59
2022/12/18 10:39:28;;;;;;;57.50;27.05;;;;;;;;;;5030307;28;20037;-58
2022/12/18 10:41:54;;;;;;;;;;;;;;;;;;5031423;28;20040;-60
2022/12/18 10:44:27;;;;;;;58.17;26.63;;;;;;;;;;5031537;28;19999;-62
2022/12/18 10:47:03;;;;;;;53.85;25.70;;;;;;;;;;5031071;28;20021;-60
2022/12/18 10:49:32;;;;;;;58.22;26.38;;;;;;;;;;5030780;28;20091;-59
2022/12/18 10:52:18;;;;;;;56.70;25.65;;;;;;;;;;5030867;28;20048;-60
2022/12/18 10:54:48;;;;;;;57.22;26.50;;;;;;;;;;5030387;28;20136;-60
2022/12/18 10:57:35;;;;;;;60.45;26.52;;;;;;;;;;5030856;28;20402;-68
2022/12/18 11:00:20;;;;;;;54.17;23.60;;;;;;;;;;5030763;28;20047;-59
2022/12/18 11:02:46;;;;;;;57.47;26.95;;;;;;;;;;5030667;28;20029;-60
2022/12/18 11:05:32;;;;;;;61.50;26.60;;;;;;;;;;5030719;28;20026;-60
2022/12/18 11:07:59;;;;;;;57.58;25.88;;;;;;;;;;5030862;28;20374;-60
2022/12/18 11:10:32;;;;;;;52.92;25.23;;;;;;;;;;5030039;28;20166;-60
2022/12/18 11:13:19;;;;;;;56.83;25.58;;;;;;;;;;5030806;28;20037;-60
2022/12/18 11:15:45;;;;;;;56.10;25.23;;;;;;;;;;5028974;28;20061;-62
2022/12/18 11:18:18;;;;;;;57.30;25.75;;;;;;;;;;5029562;28;20025;-60
2022/12/18 11:20:50;;;;;;;59.58;26.70;;;;;;;;;;5029316;28;20450;-66
2022/12/18 11:23:16;;;;;;;60.50;27.38;;;;;;;;;;5028902;28;20017;-61
2022/12/18 11:25:51;;;;;;;61.85;27.70;;;;;;;;;;5028584;28;20032;-62
2022/12/18 11:28:37;;;;;;;67.65;30.33;;;;;;;;;;5029266;28;20536;-65
2022/12/18 11:31:09;;;;;;;58.58;29.00;;;;;;;;;;5029651;28;20072;-61
2022/12/18 11:33:36;;;;;;;56.60;27.48;;;;;;;;;;5029175;28;20045;-61
2022/12/18 11:36:04;;;;;;;63.47;28.13;;;;;;;;;;5029120;28;20040;-62
2022/12/18 11:38:33;;;;;;;63.47;27.58;;;;;;;;;;5028919;28;20030;-70
2022/12/18 11:41:00;;;;;;;64.40;28.30;;;;;;;;;;5029077;28;20033;-62
2022/12/18 11:43:29;;;;;;;154.18;60.78;;;;;;;;;;5028527;28;20030;-67
2022/12/18 11:45:59;;;;;;;91.03;38.25;;;;;;;;;;5028124;28;20599;-61
2022/12/18 11:48:28;;;;;;;87.72;38.08;;;;;;;;;;5028729;28;20025;-61
2022/12/18 11:50:56;;;;;;;101.53;44.55;;;;;;;;;;5032005;28;20028;-61
2022/12/18 11:53:22;;;;;;;64.55;28.88;;;;;;;;;;5033116;28;20096;-62
2022/12/18 11:55:57;;;;;;;68.97;29.17;;;;;;;;;;5033802;28;20026;-63
2022/12/18 11:58:36;;;;;;;60.80;27.80;;;;;;;;;;5034205;28;20368;-60
2022/12/18 12:01:14;;;;;;;59.22;25.48;;;;;;;;;;5033225;28;20074;-61
2022/12/18 12:03:56;;;;;;;67.07;28.70;;;;;;;;;;5030455;28;20030;-61
2022/12/18 12:06:22;;;;;;;64.90;29.30;;;;;;;;;;5032083;28;20477;-66
2022/12/18 12:08:51;;;;;;;70.55;29.55;;;;;;;;;;5032719;28;20120;-60
2022/12/18 12:11:24;;;;;;;67.18;31.45;;;;;;;;;;5024516;28;20038;-62
2022/12/18 12:14:05;;;;;;;64.10;29.00;;;;;;;;;;5014407;28;20687;-75
2022/12/18 12:16:34;;;;;;;62.38;25.33;;;;;;;;;;5014696;28;20026;-73
2022/12/18 12:19:24;;;;;;;67.45;29.40;;;;;;;;;;5023412;28;20030;-64
2022/12/18 12:22:13;;;;;;;67.32;28.83;;;;;;;;;;5013474;28;20063;-63
2022/12/18 12:24:45;;;;;;;87.60;37.60;;;;;;;;;;5016094;28;20397;-61
2022/12/18 12:27:12;;;;;;;82.82;32.83;;;;;;;;;;5013904;28;20029;-61
2022/12/18 12:29:51;;;;;;;85.05;36.08;;;;;;;;;;5013274;28;20026;-67
2022/12/18 12:32:17;;;;;;;80.32;31.77;;;;;;;;;;5013669;28;20060;-70
2022/12/18 12:35:16;;;;;;;67.10;29.40;;;;;;;;;;5013585;28;20092;-70
2022/12/18 12:37:42;;;;;;;64.97;29.45;;;;;;;;;;4952989;29;20059;-73
2022/12/18 12:40:12;;;;;;;72.95;30.95;;;;;;;;;;4936891;29;20082;-66
2022/12/18 12:45:27;;;;;;;73.88;31.85;;;;;;;;;;4953075;29;20071;-75
2022/12/18 12:47:53;;;;;;;66.68;29.50;;;;;;;;;;4952869;29;20035;-68
2022/12/18 12:50:20;;;;;;;74.47;32.60;;;;;;;;;;4952721;29;20031;-66
2022/12/18 12:52:48;;;;;;;71.72;32.08;;;;;;;;;;4952598;29;20031;-69
2022/12/18 12:55:34;;;;;;;70.93;31.20;;;;;;;;;;4952469;29;20494;-70
2022/12/18 12:58:05;;;;;;;72.30;31.70;;;;;;;;;;4952625;29;20475;-64
2022/12/18 13:00:36;;;;;;;53.90;24.17;;;;;;;;;;4936564;29;20451;-63
2022/12/18 13:03:12;;;;;;;69.80;32.22;;;;;;;;;;4951531;28;20031;-73
2022/12/18 13:05:44;;;;;;;72.55;32.40;;;;;;;;;;4952423;29;20491;-66
2022/12/18 13:08:10;;;;;;;;;;;;;;;;;;4952742;29;20031;-71
2022/12/18 13:10:38;;;;;;;69.95;31.23;;;;;;;;;;4955375;28;19929;-75
2022/12/18 13:13:04;;;;;;;78.13;36.65;;;;;;;;;;4988840;28;20066;-75
2022/12/18 13:15:30;;;;;;;67.45;29.38;;;;;;;;;;5013058;28;20018;-64
2022/12/18 13:18:08;;;;;;;77.95;34.30;;;;;;;;;;5013025;28;20394;-63
2022/12/18 13:20:42;;;;;;;68.30;32.53;;;;;;;;;;5012856;28;20160;-65
2022/12/18 13:23:26;;;;;;;77.55;34.80;;;;;;;;;;5012652;28;20100;-72
2022/12/18 13:26:00;;;;;;;66.65;29.15;;;;;;;;;;5013145;28;20033;-63
2022/12/18 13:28:47;;;;;;;70.78;30.38;;;;;;;;;;5012492;28;20069;-72
2022/12/18 13:31:32;;;;;;;78.32;34.47;;;;;;;;;;5012944;28;20536;-68
2022/12/18 13:34:16;;;;;;;78.88;33.97;;;;;;;;;;5012205;28;20050;-64
2022/12/18 13:36:42;;;;;;;69.28;30.10;;;;;;;;;;5012831;28;20022;-64
2022/12/18 13:39:14;;;;;;;68.00;30.20;;;;;;;;;;5012930;28;20061;-72
2022/12/18 13:41:41;;;;;;;71.57;30.05;;;;;;;;;;5012418;28;20068;-69
2022/12/18 13:44:12;;;;;;;68.47;30.83;;;;;;;;;;5031902;28;20040;-66
2022/12/18 13:46:44;;;;;;;71.25;31.70;;;;;;;;;;5019032;28;20032;-64
2022/12/18 13:49:10;;;;;;;67.30;29.13;;;;;;;;;;5028242;28;20124;-73
2022/12/18 13:51:39;;;;;;;76.18;34.13;;;;;;;;;;5031983;28;20560;-73
2022/12/18 13:54:24;;;;;;;63.00;28.67;;;;;;;;;;5032006;28;20076;-72
2022/12/18 13:56:50;;;;;;;74.63;33.00;;;;;;;;;;5031303;28;20041;-72
2022/12/18 13:59:16;;;;;;;75.78;30.50;;;;;;;;;;5031819;28;20060;-63
2022/12/18 14:01:46;;;;;;;64.88;30.40;;;;;;;;;;5031658;28;20034;-70
2022/12/18 14:04:18;;;;;;;66.43;28.63;;;;;;;;;;5031824;28;20401;-62
2022/12/18 14:06:45;;;;;;;73.13;31.77;;;;;;;;;;5031647;28;20025;-64
2022/12/18 14:09:14;;;;;;;74.40;32.20;;;;;;;;;;5031388;28;20068;-63
2022/12/18 14:11:40;;;;;;;68.90;29.17;;;;;;;;;;5031571;28;20068;-63
2022/12/18 14:14:07;;;;;;;69.80;31.05;;;;;;;;;;5030102;28;20095;-65
2022/12/18 14:16:34;;;;;;;70.53;32.25;;;;;;;;;;5031440;28;20036;-64
2022/12/18 14:19:00;;;;;;;70.00;31.38;;;;;;;;;;5031838;28;20124;-63
2022/12/18 14:21:28;;;;;;;64.85;27.90;;;;;;;;;;5030934;28;20022;-64
2022/12/18 14:24:09;;;;;;;61.45;26.90;;;;;;;;;;5031501;28;20500;-63
2022/12/18 14:26:35;;;;;;;66.03;26.52;;;;;;;;;;5030865;28;20017;-65
2022/12/18 14:29:02;;;;;;;65.05;28.38;;;;;;;;;;5030724;28;20025;-71
2022/12/18 14:31:30;;;;;;;64.75;24.98;;;;;;;;;;5029264;28;20022;-76
2022/12/18 14:33:56;;;;;;;56.50;25.48;;;;;;;;;;5030001;28;20031;-72
2022/12/18 14:36:26;;;;;;;58.65;26.23;;;;;;;;;;5030789;28;20021;-63
2022/12/18 14:38:53;;;;;;;64.75;28.38;;;;;;;;;;5031098;28;20067;-63
2022/12/18 14:41:20;;;;;;;65.93;28.05;;;;;;;;;;5030803;28;20033;-65
2022/12/18 14:43:51;;;;;;;71.68;30.20;;;;;;;;;;5031009;28;20044;-74
2022/12/18 14:46:26;;;;;;;72.78;31.27;;;;;;;;;;5031029;28;20060;-63
2022/12/18 14:48:53;;;;;;;61.35;27.70;;;;;;;;;;5029999;28;20059;-65
2022/12/18 14:51:20;;;;;;;80.45;34.40;;;;;;;;;;5030985;28;20024;-63
2022/12/18 14:53:55;;;;;;;62.03;27.83;;;;;;;;;;5011628;28;20049;-63
2022/12/18 14:56:29;;;;;;;70.35;31.38;;;;;;;;;;5031078;28;20109;-62
2022/12/18 14:58:55;;;;;;;78.43;33.08;;;;;;;;;;5030281;28;20110;-62
2022/12/18 15:01:23;;;;;;;77.60;29.88;;;;;;;;;;5030817;28;20529;-69
2022/12/18 15:03:50;;;;;;;67.63;29.77;;;;;;;;;;5030793;28;20079;-61
2022/12/18 15:06:17;;;;;;;82.15;36.83;;;;;;;;;;5030613;28;20033;-65
2022/12/18 15:08:43;;;;;;;66.10;30.27;;;;;;;;;;5030810;28;20033;-72
2022/12/18 15:11:27;;;;;;;83.55;36.92;;;;;;;;;;5030214;28;20497;-62
2022/12/18 15:13:53;;;;;;;90.50;38.10;;;;;;;;;;5030091;28;20073;-62
2022/12/18 15:16:20;;;;;;;96.93;39.65;;;;;;;;;;5030572;28;20018;-62
2022/12/18 15:18:47;;;;;;;93.13;38.17;;;;;;;;;;5029257;28;20344;-62
2022/12/18 15:21:18;;;;;;;111.95;42.15;;;;;;;;;;5028897;28;20021;-73
2022/12/18 15:23:44;;;;;;;105.18;42.45;;;;;;;;;;5025927;28;20040;-68
2022/12/18 15:26:10;;;;;;;90.10;39.85;;;;;;;;;;5026578;28;20018;-71
2022/12/18 15:28:43;;;;;;;90.57;38.72;;;;;;;;;;5029004;28;20064;-62
2022/12/18 15:31:11;;;;;;;117.45;47.17;;;;;;;;;;5028883;28;20037;-63
2022/12/18 15:33:38;;;;;;;90.05;37.05;;;;;;;;;;5028738;28;20049;-62
2022/12/18 15:36:05;;;;;;;98.95;41.08;;;;;;;;;;5029212;28;20109;-73
2022/12/18 15:38:31;;;;;;;92.32;40.33;;;;;;;;;;5029691;28;20037;-61
2022/12/18 15:40:57;;;;;;;86.07;36.38;;;;;;;;;;5030229;28;20112;-66
2022/12/18 15:43:33;;;;;;;83.35;34.55;;;;;;;;;;5029039;28;20041;-67
2022/12/18 15:46:20;;;;;;;92.95;37.17;;;;;;;;;;5029943;28;20030;-64
2022/12/18 15:48:47;;;;;;;95.80;38.20;;;;;;;;;;5028882;28;20025;-62
2022/12/18 15:51:16;;;;;;;82.85;33.72;;;;;;;;;;5028694;28;20021;-68
2022/12/18 15:53:42;;;;;;;102.00;43.58;;;;;;;;;;5028790;28;20083;-61
2022/12/18 15:58:57;;;;;;;80.82;33.50;;;;;;;;;;5026810;28;20103;-69
2022/12/18 16:01:24;;;;;;;85.50;34.80;;;;;;;;;;5028430;28;20116;-70
2022/12/18 16:03:50;;;;;;;75.97;32.42;;;;;;;;;;5028445;28;20028;-68
2022/12/18 16:06:16;;;;;;;94.72;40.65;;;;;;;;;;5027956;28;20482;-63
2022/12/18 16:08:42;;;;;;;126.75;56.78;;;;;;;;;;5026739;28;20385;-63
2022/12/18 16:11:40;;;;;;;79.68;33.75;;;;;;;;;;5027901;28;20058;-67
2022/12/18 16:14:23;;;;;;;78.05;33.75;;;;;;;;;;5029571;28;20580;-78
2022/12/18 16:16:50;;;;;;;79.65;36.10;;;;;;;;;;5029318;28;20076;-61
2022/12/18 16:19:17;;;;;;;66.88;29.02;;;;;;;;;;5029946;28;20029;-70
2022/12/18 16:21:43;;;;;;;100.35;40.63;;;;;;;;;;5029561;28;20467;-63
2022/12/18 16:24:19;;;;;;;102.45;42.28;;;;;;;;;;5029258;28;20512;-61
2022/12/18 16:26:45;;;;;;;84.82;35.40;;;;;;;;;;5029663;28;20049;-61
2022/12/18 16:29:11;;;;;;;142.25;62.92;;;;;;;;;;5029448;28;20029;-72
2022/12/18 16:31:37;;;;;;;105.90;46.85;;;;;;;;;;5030122;28;20121;-62
2022/12/18 16:34:10;;;;;;;98.07;40.92;;;;;;;;;;5029054;28;20077;-68
2022/12/18 16:36:36;;;;;;;102.00;43.75;;;;;;;;;;5030478;28;20297;-72
2022/12/18 16:39:05;;;;;;;91.05;38.65;;;;;;;;;;5032985;28;20802;-71
2022/12/18 16:41:32;;;;;;;102.95;44.10;;;;;;;;;;5032975;28;20034;-69
2022/12/18 16:43:58;;;;;;;105.03;44.70;;;;;;;;;;5032628;28;20068;-67
2022/12/18 16:46:24;;;;;;;99.28;41.47;;;;;;;;;;5033002;28;20529;-69
2022/12/18 16:48:50;;;;;;;96.38;38.97;;;;;;;;;;5032932;28;20068;-64
2022/12/18 16:51:16;;;;;;;96.25;39.15;;;;;;;;;;5033365;28;20057;-69
2022/12/18 16:53:42;;;;;;;95.45;39.92;;;;;;;;;;5033004;28;20041;-68
2022/12/18 16:56:08;;;;;;;115.18;46.33;;;;;;;;;;5032768;28;20029;-64
2022/12/18 16:58:34;;;;;;;104.13;42.30;;;;;;;;;;5030816;28;20474;-68
2022/12/18 17:01:00;;;;;;;101.00;43.65;;;;;;;;;;5030600;28;20047;-61
2022/12/18 17:03:26;;;;;;;78.38;32.60;;;;;;;;;;5029335;28;20021;-69
2022/12/18 17:05:52;;;;;;;67.13;29.77;;;;;;;;;;5029923;28;20037;-62
2022/12/18 17:08:18;;;;;;;62.03;27.45;;;;;;;;;;5030169;28;20105;-61
2022/12/18 17:10:44;;;;;;;86.20;37.25;;;;;;;;;;5031094;28;20377;-61
2022/12/18 17:13:10;;;;;;;66.90;29.90;;;;;;;;;;5031439;28;20042;-67
2022/12/18 17:15:37;;;;;;;82.07;33.55;;;;;;;;;;5032384;28;20045;-61
2022/12/18 17:18:03;;;;;;;82.03;34.35;;;;;;;;;;5033038;28;20021;-62
2022/12/18 17:20:32;;;;;;;85.60;37.30;;;;;;;;;;5032783;28;20033;-62
2022/12/18 17:22:58;;;;;;;70.25;31.42;;;;;;;;;;5032108;28;20030;-65
2022/12/18 17:25:24;;;;;;;97.82;37.70;;;;;;;;;;5032150;28;20041;-66
2022/12/18 17:27:50;;;;;;;80.57;33.63;;;;;;;;;;5031825;28;20033;-63
2022/12/18 17:30:17;;;;;;;91.07;37.90;;;;;;;;;;5031253;28;20029;-66
2022/12/18 17:32:43;;;;;;;83.50;34.13;;;;;;;;;;5032260;28;20022;-63
2022/12/18 17:35:09;;;;;;;84.70;37.55;;;;;;;;;;5032212;28;20033;-63
2022/12/18 17:37:35;;;;;;;86.28;37.38;;;;;;;;;;5032077;28;20068;-67
2022/12/18 17:40:01;;;;;;;94.18;39.75;;;;;;;;;;5032216;28;20041;-65
2022/12/18 17:42:27;;;;;;;129.40;52.55;;;;;;;;;;5031069;28;20029;-64
2022/12/18 17:44:53;;;;;;;97.63;41.00;;;;;;;;;;5031819;28;20048;-65
2022/12/18 17:47:19;;;;;;;116.15;45.85;;;;;;;;;;5031008;28;20438;-63
2022/12/18 17:49:45;;;;;;;93.00;38.95;;;;;;;;;;5031199;28;20054;-64
2022/12/18 17:52:11;;;;;;;91.80;38.85;;;;;;;;;;5031767;28;20029;-69
2022/12/18 17:54:40;;;;;;;93.30;38.58;;;;;;;;;;5031284;28;20040;-64
2022/12/18 17:57:06;;;;;;;91.00;38.78;;;;;;;;;;5030804;28;20032;-63
2022/12/18 17:59:32;;;;;;;99.45;42.20;;;;;;;;;;5031384;28;20069;-67
2022/12/18 18:01:58;;;;;;;96.90;40.65;;;;;;;;;;5031353;28;20033;-66
2022/12/18 18:04:24;;;;;;;96.70;41.20;;;;;;;;;;5031532;28;20025;-66
2022/12/18 18:06:50;;;;;;;104.13;44.25;;;;;;;;;;5031341;28;20029;-62
2022/12/18 18:09:16;;;;;;;115.25;46.65;;;;;;;;;;5031311;28;20029;-64
2022/12/18 18:14:27;;;;;;;109.15;45.63;;;;;;;;;;5031426;28;20044;-65
2022/12/18 18:16:53;;;;;;;156.95;60.53;;;;;;;;;;5031455;28;20022;-65
2022/12/18 18:19:23;;;;;;;93.13;39.28;;;;;;;;;;5029601;28;20063;-64
2022/12/18 18:21:51;;;;;;;125.18;52.80;;;;;;;;;;5031441;28;20045;-65
2022/12/18 18:24:18;;;;;;;94.30;41.03;;;;;;;;;;5031524;28;20026;-63
2022/12/18 18:26:48;;;;;;;153.13;68.93;;;;;;;;;;5030806;28;20017;-67
2022/12/18 18:29:17;;;;;;;97.05;39.75;;;;;;;;;;5030936;28;20095;-68
2022/12/18 18:31:43;;;;;;;95.22;41.10;;;;;;;;;;5031228;28;20580;-61
2022/12/18 18:34:16;;;;;;;87.47;37.65;;;;;;;;;;5031078;28;20859;-62
2022/12/18 18:36:44;;;;;;;100.40;42.97;;;;;;;;;;5031349;28;20100;-63
2022/12/18 18:39:10;;;;;;;102.60;42.88;;;;;;;;;;5030909;28;20025;-63
2022/12/18 18:41:36;;;;;;;100.15;41.05;;;;;;;;;;5030913;28;20033;-68
2022/12/18 18:44:02;;;;;;;98.45;41.30;;;;;;;;;;5031000;28;20025;-68
2022/12/18 18:46:28;;;;;;;102.15;42.17;;;;;;;;;;5030174;28;20031;-63
2022/12/18 18:48:55;;;;;;;103.40;43.28;;;;;;;;;;5029319;28;20025;-62
2022/12/18 18:51:21;;;;;;;97.82;39.83;;;;;;;;;;5030828;28;20496;-69
2022/12/18 18:53:47;;;;;;;98.80;40.70;;;;;;;;;;5028812;28;20029;-62
2022/12/18 18:56:15;;;;;;;104.30;42.85;;;;;;;;;;5029345;28;20021;-67
2022/12/18 18:58:41;;;;;;;91.68;38.83;;;;;;;;;;5028807;28;20466;-64
2022/12/18 19:01:09;;;;;;;98.13;41.28;;;;;;;;;;5028444;28;20052;-63
2022/12/18 19:03:36;;;;;;;105.43;42.35;;;;;;;;;;5028877;28;20022;-67
2022/12/18 19:06:03;;;;;;;104.68;42.30;;;;;;;;;;5029046;28;20013;-62
2022/12/18 19:08:30;;;;;;;106.70;44.67;;;;;;;;;;5028796;28;20036;-63
2022/12/18 19:10:57;;;;;;;110.00;45.42;;;;;;;;;;5025886;28;20528;-62
2022/12/18 19:13:25;;;;;;;102.97;41.63;;;;;;;;;;5028852;28;20112;-62
2022/12/18 19:15:53;;;;;;;100.22;40.92;;;;;;;;;;5028657;28;20021;-67
2022/12/18 19:18:19;;;;;;;114.47;45.35;;;;;;;;;;5028218;28;20030;-62
2022/12/18 19:20:53;;;;;;;111.60;45.63;;;;;;;;;;5029196;28;20033;-65
2022/12/18 19:23:19;;;;;;;107.13;44.53;;;;;;;;;;5030292;28;20504;-62
2022/12/18 19:25:45;;;;;;;104.03;40.70;;;;;;;;;;5030082;28;20029;-63
2022/12/18 19:28:11;;;;;;;111.93;44.05;;;;;;;;;;5030024;28;20030;-62
2022/12/18 19:30:38;;;;;;;110.57;43.97;;;;;;;;;;5029481;28;20102;-65
2022/12/18 19:33:05;;;;;;;117.18;46.15;;;;;;;;;;5028593;28;20469;-62
2022/12/18 19:35:31;;;;;;;108.88;46.28;;;;;;;;;;5028352;28;20100;-62
2022/12/18 19:37:57;;;;;;;118.63;49.83;;;;;;;;;;5028630;28;20730;-65
2022/12/18 19:40:23;;;;;;;129.95;50.53;;;;;;;;;;5028403;28;20066;-62
2022/12/18 19:42:49;;;;;;;137.30;59.70;;;;;;;;;;5028576;28;20029;-63
2022/12/18 19:45:15;;;;;;;126.03;52.67;;;;;;;;;;5028631;28;20057;-63
2022/12/18 19:47:41;;;;;;;118.90;50.42;;;;;;;;;;5029426;28;20167;-63
2022/12/18 19:50:07;;;;;;;127.47;53.10;;;;;;;;;;5027247;28;20022;-64
2022/12/18 19:52:34;;;;;;;129.07;54.55;;;;;;;;;;5028321;28;20061;-68
2022/12/18 19:55:00;;;;;;;129.88;54.20;;;;;;;;;;5028113;28;20072;-63
2022/12/18 19:57:26;;;;;;;132.88;56.22;;;;;;;;;;5028424;28;20021;-63
2022/12/18 19:59:58;;;;;;;142.90;57.22;;;;;;;;;;5028339;28;20033;-63
2022/12/18 20:02:24;;;;;;;137.25;57.35;;;;;;;;;;5028275;28;20044;-63
2022/12/18 20:04:50;;;;;;;130.18;56.10;;;;;;;;;;5028393;28;20021;-64
2022/12/18 20:07:16;;;;;;;136.18;56.97;;;;;;;;;;5028374;28;20129;-70
2022/12/18 20:09:42;;;;;;;131.50;52.85;;;;;;;;;;5028115;28;20034;-64
2022/12/18 20:12:08;;;;;;;132.15;54.88;;;;;;;;;;5029233;28;20046;-63
2022/12/18 20:17:31;;;;;;;129.77;53.33;;;;;;;;;;5032301;28;20071;-62
2022/12/18 20:19:57;;;;;;;131.23;53.78;;;;;;;;;;5031597;28;20436;-65
2022/12/18 20:22:42;;;;;;;132.88;53.67;;;;;;;;;;5033493;28;20532;-62
2022/12/18 20:25:29;;;;;;;135.23;55.65;;;;;;;;;;5031694;28;20061;-68
2022/12/18 20:27:55;;;;;;;133.55;55.28;;;;;;;;;;5031688;28;20032;-68
2022/12/18 20:30:39;;;;;;;131.88;53.50;;;;;;;;;;5031702;28;20018;-63
2022/12/18 20:33:20;;;;;;;135.98;57.17;;;;;;;;;;5028710;28;20045;-60
2022/12/18 20:35:49;;;;;;;131.57;55.30;;;;;;;;;;5029764;28;20018;-71
2022/12/18 20:38:28;;;;;;;137.85;56.67;;;;;;;;;;5029073;28;20030;-63
2022/12/18 20:44:30;;;;;;;151.80;63.25;;;;;;;;;;5029771;28;20110;-71
2022/12/18 20:46:59;;;;;;;144.38;64.60;;;;;;;;;;5033449;28;20132;-66
2022/12/18 20:49:28;;;;;;;143.43;62.15;;;;;;;;;;5033584;28;20045;-69
2022/12/18 20:51:55;;;;;;;153.20;63.47;;;;;;;;;;5033405;28;20025;-63
2022/12/18 20:54:22;;;;;;;152.10;64.68;;;;;;;;;;5032930;28;20029;-62
2022/12/18 20:56:48;;;;;;;149.32;62.38;;;;;;;;;;5033337;28;20025;-62
2022/12/18 20:59:14;;;;;;;135.93;59.50;;;;;;;;;;5032459;28;20025;-63
2022/12/18 21:01:42;;;;;;;146.38;57.83;;;;;;;;;;5033710;28;20033;-64
2022/12/18 21:04:08;;;;;;;150.15;61.25;;;;;;;;;;5049780;28;20040;-65